createdAt,value
2023-04-26T00:01:14.634Z,53.40
2023-04-26T00:03:41.593Z,53.50
2023-04-26T00:06:14.099Z,53.00
2023-04-26T00:08:42.263Z,53.00
2023-04-26T00:11:08.993Z,53.90
2023-04-26T00:13:37.056Z,53.10
2023-04-26T00:16:03.972Z,53.00
2023-04-26T00:18:31.616Z,53.70
2023-04-26T00:20:58.354Z,53.90
2023-04-26T00:23:24.990Z,53.10
2023-04-26T00:25:51.538Z,53.20
2023-04-26T00:28:18.117Z,52.70
2023-04-26T00:30:48.706Z,52.60
2023-04-26T00:33:15.280Z,52.90
2023-04-26T00:35:41.964Z,52.80
2023-04-26T00:38:08.521Z,52.90
2023-04-26T00:40:35.493Z,52.50
2023-04-26T00:43:02.764Z,52.80
2023-04-26T00:45:29.404Z,54.00
2023-04-26T00:47:56.419Z,54.30
2023-04-26T00:50:23.050Z,52.80
2023-04-26T00:52:50.466Z,52.80
2023-04-26T00:55:17.136Z,52.90
2023-04-26T00:57:45.015Z,53.20
2023-04-26T01:00:11.809Z,52.40
2023-04-26T01:02:38.711Z,53.60
2023-04-26T01:05:06.498Z,53.10
2023-04-26T01:07:33.516Z,54.00
2023-04-26T01:10:00.426Z,53.40
2023-04-26T01:12:27.293Z,53.20
2023-04-26T01:14:54.145Z,52.90
2023-04-26T01:17:20.789Z,52.70
2023-04-26T01:19:48.279Z,53.40
2023-04-26T01:22:14.840Z,52.50
2023-04-26T01:24:42.769Z,53.40
2023-04-26T01:27:09.636Z,52.00
2023-04-26T01:29:36.195Z,52.70
2023-04-26T01:32:02.921Z,53.70
2023-04-26T01:34:29.586Z,54.00
2023-04-26T01:36:56.198Z,53.70
2023-04-26T01:39:22.790Z,53.90
2023-04-26T01:41:49.338Z,52.70
2023-04-26T01:44:16.069Z,52.50
2023-04-26T01:46:42.757Z,52.50
2023-04-26T01:49:09.376Z,52.90
2023-04-26T01:51:36.305Z,52.50
2023-04-26T01:54:03.115Z,53.80
2023-04-26T01:56:29.683Z,53.70
2023-04-26T01:58:57.359Z,53.80
2023-04-26T02:01:24.207Z,53.20
2023-04-26T02:03:51.277Z,53.30
2023-04-26T02:06:17.831Z,53.20
2023-04-26T02:08:44.923Z,52.60
2023-04-26T02:11:11.661Z,53.00
2023-04-26T02:13:38.311Z,52.90
2023-04-26T02:16:05.260Z,52.40
2023-04-26T02:18:31.880Z,53.20
2023-04-26T02:20:58.479Z,52.60
2023-04-26T02:23:25.040Z,53.40
2023-04-26T02:25:51.767Z,53.10
2023-04-26T02:28:18.456Z,52.40
2023-04-26T02:30:45.032Z,52.80
2023-04-26T02:33:11.612Z,53.40
2023-04-26T02:35:38.231Z,53.30
2023-04-26T02:38:04.906Z,53.30
2023-04-26T02:40:31.541Z,52.10
2023-04-26T02:42:58.122Z,51.80
2023-04-26T02:45:24.814Z,52.20
2023-04-26T02:47:51.427Z,52.10
2023-04-26T02:50:18.112Z,53.50
2023-04-26T02:52:44.653Z,52.40
2023-04-26T02:55:11.220Z,52.40
2023-04-26T02:57:37.809Z,52.10
2023-04-26T03:00:05.521Z,52.70
2023-04-26T03:02:32.440Z,52.50
2023-04-26T03:04:59.160Z,52.50
2023-04-26T03:07:25.875Z,52.30
2023-04-26T03:09:52.462Z,52.30
2023-04-26T03:12:19.572Z,53.20
2023-04-26T03:14:46.113Z,52.90
2023-04-26T03:17:12.664Z,52.00
2023-04-26T03:19:39.343Z,53.30
2023-04-26T03:22:05.909Z,52.30
2023-04-26T03:24:32.689Z,52.50
2023-04-26T03:27:00.085Z,52.00
2023-04-26T03:29:27.004Z,51.90
2023-04-26T03:31:53.685Z,51.80
2023-04-26T03:34:20.706Z,52.10
2023-04-26T03:36:47.493Z,52.80
2023-04-26T03:39:14.229Z,52.50
2023-04-26T03:41:41.046Z,52.30
2023-04-26T03:44:07.642Z,53.00
2023-04-26T03:46:34.553Z,52.30
2023-04-26T03:49:01.230Z,52.80
2023-04-26T03:51:28.305Z,52.40
2023-04-26T03:53:55.590Z,52.60
2023-04-26T03:56:22.156Z,53.10
2023-04-26T03:58:48.815Z,52.20
2023-04-26T04:01:15.768Z,52.70
2023-04-26T04:03:42.562Z,53.10
2023-04-26T04:06:09.457Z,52.50
2023-04-26T04:08:36.229Z,52.70
2023-04-26T04:11:02.795Z,52.70
2023-04-26T04:13:29.466Z,51.90
2023-04-26T04:15:56.102Z,52.50
2023-04-26T04:18:22.722Z,51.90
2023-04-26T04:20:49.276Z,52.80
2023-04-26T04:23:15.880Z,53.00
2023-04-26T04:25:43.976Z,53.10
2023-04-26T04:28:11.973Z,53.10
2023-04-26T04:30:38.572Z,52.20
2023-04-26T04:33:05.439Z,53.00
2023-04-26T04:35:34.129Z,52.00
2023-04-26T04:38:01.741Z,52.60
2023-04-26T04:40:28.380Z,52.90
2023-04-26T04:42:55.629Z,53.00
2023-04-26T04:45:22.272Z,52.90
2023-04-26T04:47:49.068Z,53.00
2023-04-26T04:50:15.966Z,52.80
2023-04-26T04:52:42.607Z,53.00
2023-04-26T04:55:09.893Z,53.30
2023-04-26T05:00:10.267Z,52.20
2023-04-26T05:02:37.336Z,52.00
2023-04-26T05:05:05.080Z,52.70
2023-04-26T05:07:32.414Z,52.00
2023-04-26T05:09:59.636Z,52.00
2023-04-26T05:12:26.506Z,52.10
2023-04-26T05:14:53.306Z,52.00
2023-04-26T05:17:20.167Z,52.00
2023-04-26T05:19:47.519Z,51.70
2023-04-26T05:22:18.791Z,51.80
2023-04-26T05:24:47.249Z,51.70
2023-04-26T05:27:14.435Z,51.90
2023-04-26T05:29:41.582Z,51.90
2023-04-26T05:32:08.488Z,52.70
2023-04-26T05:34:36.632Z,52.00
2023-04-26T05:37:03.640Z,51.80
2023-04-26T05:39:30.637Z,52.60
2023-04-26T05:41:57.406Z,51.60
2023-04-26T05:44:24.530Z,51.60
2023-04-26T05:46:51.076Z,52.40
2023-04-26T05:49:17.791Z,52.40
2023-04-26T05:51:44.388Z,52.30
2023-04-26T05:54:10.970Z,52.30
2023-04-26T05:56:37.592Z,51.90
2023-04-26T05:59:04.132Z,51.60
2023-04-26T06:01:30.905Z,51.50
2023-04-26T06:04:00.891Z,51.50
2023-04-26T06:06:28.823Z,52.00
2023-04-26T06:08:57.355Z,52.30
2023-04-26T06:11:24.011Z,52.30
2023-04-26T06:13:50.844Z,52.10
2023-04-26T06:16:18.078Z,51.70
2023-04-26T06:18:44.740Z,51.80
2023-04-26T06:21:11.315Z,51.70
2023-04-26T06:23:37.909Z,51.40
2023-04-26T06:26:04.458Z,51.70
2023-04-26T06:28:31.030Z,51.70
2023-04-26T06:30:57.896Z,51.50
2023-04-26T06:33:24.538Z,51.70
2023-04-26T06:35:51.581Z,52.70
2023-04-26T06:38:18.204Z,52.70
2023-04-26T06:40:44.849Z,51.90
2023-04-26T06:43:11.535Z,52.10
2023-04-26T06:45:38.127Z,51.90
2023-04-26T06:48:05.242Z,51.80
2023-04-26T06:50:31.923Z,51.90
2023-04-26T06:52:58.598Z,51.80
2023-04-26T06:55:25.241Z,52.30
2023-04-26T06:57:51.835Z,51.70
2023-04-26T07:00:19.015Z,52.60
2023-04-26T07:02:45.894Z,52.40
2023-04-26T07:05:12.730Z,52.70
2023-04-26T07:07:39.481Z,52.50
2023-04-26T07:10:06.458Z,52.70
2023-04-26T07:12:33.048Z,52.60
2023-04-26T07:15:01.309Z,52.00
2023-04-26T07:17:28.018Z,52.20
2023-04-26T07:19:56.154Z,51.90
2023-04-26T07:22:23.003Z,51.90
2023-04-26T07:24:49.736Z,51.60
2023-04-26T07:27:16.378Z,51.80
2023-04-26T07:29:42.978Z,52.30
2023-04-26T07:32:10.003Z,52.40
2023-04-26T07:34:37.006Z,52.30
2023-04-26T07:37:04.507Z,52.20
2023-04-26T07:39:31.143Z,52.60
2023-04-26T07:41:57.745Z,52.20
2023-04-26T07:44:24.387Z,52.50
2023-04-26T07:46:51.600Z,52.10
2023-04-26T07:49:18.273Z,52.20
2023-04-26T07:51:45.745Z,52.30
2023-04-26T07:54:12.450Z,52.60
2023-04-26T07:56:39.043Z,52.70
2023-04-26T07:59:05.667Z,52.30
2023-04-26T08:01:32.252Z,52.40
2023-04-26T08:03:59.205Z,52.70
2023-04-26T08:06:26.853Z,51.90
2023-04-26T08:08:53.975Z,52.00
2023-04-26T08:11:20.666Z,52.60
2023-04-26T08:13:47.483Z,51.80
2023-04-26T08:16:14.540Z,52.10
2023-04-26T08:18:41.138Z,52.60
2023-04-26T08:21:07.922Z,51.90
2023-04-26T08:23:37.579Z,52.30
2023-04-26T08:26:04.375Z,52.20
2023-04-26T08:28:31.023Z,51.90
2023-04-26T08:30:58.212Z,51.80
2023-04-26T08:33:25.619Z,52.40
2023-04-26T08:35:52.491Z,52.50
2023-04-26T08:38:19.129Z,52.20
2023-04-26T08:40:46.715Z,52.30
2023-04-26T08:43:14.641Z,52.20
2023-04-26T08:45:42.530Z,52.90
2023-04-26T08:48:13.389Z,52.90
2023-04-26T08:50:40.714Z,52.70
2023-04-26T08:53:07.943Z,52.10
2023-04-26T08:55:35.755Z,53.00
2023-04-26T08:58:04.424Z,52.90
2023-04-26T09:00:31.276Z,52.30
2023-04-26T09:02:57.973Z,52.40
2023-04-26T09:05:26.688Z,52.30
2023-04-26T09:07:57.040Z,52.30
2023-04-26T09:10:24.012Z,53.20
2023-04-26T09:12:54.141Z,53.00
2023-04-26T09:15:21.944Z,53.10
2023-04-26T09:17:49.847Z,52.80
2023-04-26T09:20:19.945Z,52.50
2023-04-26T09:22:47.093Z,53.00
2023-04-26T09:25:14.240Z,53.20
2023-04-26T09:27:48.880Z,52.30
2023-04-26T09:30:17.642Z,52.60
2023-04-26T09:32:44.554Z,52.40
2023-04-26T09:35:23.496Z,52.60
2023-04-26T09:38:06.505Z,52.70
2023-04-26T09:40:38.932Z,52.70
2023-04-26T09:43:13.212Z,53.20
2023-04-26T09:45:47.286Z,53.10
2023-04-26T09:48:22.069Z,53.20
2023-04-26T09:50:52.936Z,53.00
2023-04-26T09:53:27.538Z,52.90
2023-04-26T09:55:54.951Z,52.90
2023-04-26T09:58:22.288Z,53.40
2023-04-26T10:00:52.298Z,52.70
2023-04-26T10:03:20.643Z,52.00
2023-04-26T10:05:47.943Z,52.10
2023-04-26T10:08:14.698Z,52.00
2023-04-26T10:10:41.993Z,52.20
2023-04-26T10:13:09.305Z,51.60
2023-04-26T10:15:35.948Z,51.90
2023-04-26T10:18:03.242Z,51.80
2023-04-26T10:20:29.882Z,52.00
2023-04-26T10:23:01.309Z,52.40
2023-04-26T10:25:38.480Z,51.60
2023-04-26T10:28:05.749Z,52.10
2023-04-26T10:30:32.753Z,52.30
2023-04-26T10:32:59.400Z,52.40
2023-04-26T10:35:30.335Z,52.20
2023-04-26T10:37:59.753Z,52.60
2023-04-26T10:40:27.431Z,51.50
2023-04-26T10:43:13.748Z,51.80
2023-04-26T10:45:41.212Z,52.80
2023-04-26T10:48:28.930Z,51.70
2023-04-26T10:51:01.690Z,51.30
2023-04-26T10:53:29.016Z,51.90
2023-04-26T10:55:55.651Z,51.60
2023-04-26T10:58:26.498Z,51.40
2023-04-26T11:01:11.933Z,51.60
2023-04-26T11:03:40.637Z,51.40
2023-04-26T11:06:09.501Z,52.20
2023-04-26T11:08:36.911Z,51.10
2023-04-26T11:11:03.466Z,52.20
2023-04-26T11:13:40.653Z,51.30
2023-04-26T11:16:08.376Z,51.50
2023-04-26T11:18:36.138Z,51.50
2023-04-26T11:21:02.812Z,50.80
2023-04-26T11:23:30.238Z,50.90
2023-04-26T11:26:02.747Z,51.30
2023-04-26T11:28:31.619Z,50.90
2023-04-26T11:30:59.862Z,50.90
2023-04-26T11:33:26.853Z,51.50
2023-04-26T11:35:55.809Z,51.40
2023-04-26T11:38:22.973Z,51.70
2023-04-26T11:41:10.943Z,51.20
2023-04-26T11:43:40.647Z,52.40
2023-04-26T11:46:08.168Z,52.70
2023-04-26T11:48:35.902Z,52.30
2023-04-26T11:51:07.065Z,51.90
2023-04-26T11:53:40.966Z,51.50
2023-04-26T11:56:27.836Z,51.10
2023-04-26T11:58:54.555Z,50.70
2023-04-26T12:01:27.994Z,50.30
2023-04-26T12:03:55.824Z,50.80
2023-04-26T12:06:29.002Z,49.70
2023-04-26T12:08:56.315Z,49.80
2023-04-26T12:11:22.944Z,49.60
2023-04-26T12:13:49.532Z,49.90
2023-04-26T12:16:25.555Z,49.50
2023-04-26T12:18:53.824Z,49.60
2023-04-26T12:21:20.735Z,49.80
2023-04-26T12:23:48.105Z,49.60
2023-04-26T12:26:15.187Z,49.70
2023-04-26T12:28:41.947Z,49.50
2023-04-26T12:31:08.751Z,50.00
2023-04-26T12:33:35.771Z,49.80
2023-04-26T12:36:06.333Z,49.60
2023-04-26T12:38:32.927Z,49.90
2023-04-26T12:40:59.502Z,50.00
2023-04-26T12:43:26.295Z,50.30
2023-04-26T12:45:52.989Z,50.10
2023-04-26T12:48:19.570Z,50.40
2023-04-26T12:50:46.491Z,50.20
2023-04-26T12:53:13.954Z,50.50
2023-04-26T12:55:40.535Z,50.50
2023-04-26T12:58:07.253Z,50.30
2023-04-26T13:00:33.885Z,50.60
2023-04-26T13:03:00.564Z,51.70
2023-04-26T13:05:29.575Z,51.00
2023-04-26T13:07:56.206Z,52.00
2023-04-26T13:10:22.825Z,51.90
2023-04-26T13:12:49.437Z,51.60
2023-04-26T13:15:17.422Z,51.20
2023-04-26T13:17:45.471Z,51.20
2023-04-26T13:20:12.358Z,51.50
2023-04-26T13:22:41.799Z,51.60
2023-04-26T13:25:08.418Z,51.60
2023-04-26T13:27:34.993Z,51.80
2023-04-26T13:30:01.620Z,52.00
2023-04-26T13:32:29.066Z,51.80
2023-04-26T13:34:56.803Z,51.60
2023-04-26T13:37:23.831Z,51.50
2023-04-26T13:39:50.524Z,51.30
2023-04-26T13:42:17.524Z,51.60
2023-04-26T13:44:44.216Z,51.80
2023-04-26T13:47:10.920Z,52.20
2023-04-26T13:49:38.448Z,52.00
2023-04-26T13:52:05.021Z,51.40
2023-04-26T13:54:31.687Z,51.60
2023-04-26T13:56:58.316Z,51.60
2023-04-26T13:59:24.989Z,52.10
2023-04-26T14:01:53.816Z,51.80
2023-04-26T14:04:22.250Z,52.20
2023-04-26T14:06:48.988Z,52.00
2023-04-26T14:09:16.147Z,51.60
2023-04-26T14:11:42.891Z,50.90
2023-04-26T14:14:09.537Z,52.00
2023-04-26T14:16:36.328Z,52.00
2023-04-26T14:19:02.937Z,52.00
2023-04-26T14:21:29.498Z,51.40
2023-04-26T14:23:56.537Z,50.80
2023-04-26T14:26:25.910Z,52.20
2023-04-26T14:28:52.510Z,51.60
2023-04-26T14:31:19.847Z,51.20
2023-04-26T14:33:46.720Z,51.20
2023-04-26T14:36:13.288Z,51.30
2023-04-26T14:38:43.632Z,51.40
2023-04-26T14:41:14.330Z,52.20
2023-04-26T14:43:41.290Z,51.60
2023-04-26T14:46:08.112Z,51.70
2023-04-26T14:48:34.744Z,51.50
2023-04-26T14:51:01.355Z,51.70
2023-04-26T14:53:27.984Z,52.00
2023-04-26T14:55:58.151Z,55.00
2023-04-26T14:58:25.403Z,54.10
2023-04-26T15:00:52.938Z,53.50
2023-04-26T15:03:19.955Z,55.00
2023-04-26T15:05:46.687Z,54.70
2023-04-26T15:08:13.220Z,55.00
2023-04-26T15:10:39.773Z,55.40
2023-04-26T15:13:06.912Z,55.60
2023-04-26T15:15:33.887Z,55.50
2023-04-26T15:18:00.894Z,55.70
2023-04-26T15:20:27.518Z,56.30
2023-04-26T15:22:54.103Z,56.40
2023-04-26T15:25:21.059Z,56.90
2023-04-26T15:27:50.200Z,56.40
2023-04-26T15:30:16.759Z,56.30
2023-04-26T15:32:46.812Z,56.00
2023-04-26T15:35:15.025Z,55.80
2023-04-26T15:37:41.953Z,55.70
2023-04-26T15:40:10.532Z,55.90
2023-04-26T15:42:37.564Z,55.60
2023-04-26T15:45:04.300Z,55.60
2023-04-26T15:47:31.092Z,55.50
2023-04-26T15:50:01.684Z,55.70
2023-04-26T15:52:28.400Z,56.00
2023-04-26T15:54:55.007Z,56.00
2023-04-26T15:57:21.830Z,55.90
2023-04-26T15:59:48.874Z,56.20
2023-04-26T16:02:15.666Z,56.30
2023-04-26T16:04:42.397Z,56.30
2023-04-26T16:07:09.036Z,57.00
2023-04-26T16:09:36.126Z,56.40
2023-04-26T16:12:03.561Z,56.60
2023-04-26T16:14:31.178Z,56.70
2023-04-26T16:17:00.443Z,56.60
2023-04-26T16:19:27.122Z,57.00
2023-04-26T16:21:54.305Z,57.00
2023-04-26T16:24:21.027Z,57.00
2023-04-26T16:26:47.598Z,57.30
2023-04-26T16:29:14.270Z,57.00
2023-04-26T16:31:40.953Z,57.30
2023-04-26T16:34:07.580Z,57.30
2023-04-26T16:36:35.553Z,56.90
2023-04-26T16:39:02.206Z,57.10
2023-04-26T16:41:28.833Z,57.00
2023-04-26T16:43:55.997Z,57.10
2023-04-26T16:46:23.389Z,57.10
2023-04-26T16:48:50.206Z,57.10
2023-04-26T16:51:16.828Z,57.10
2023-04-26T16:53:43.533Z,57.10
2023-04-26T16:56:10.103Z,57.10
2023-04-26T16:58:36.910Z,57.30
2023-04-26T17:01:03.594Z,57.20
2023-04-26T17:03:30.903Z,57.30
2023-04-26T17:05:57.769Z,57.30
2023-04-26T17:08:24.651Z,57.40
2023-04-26T17:10:51.885Z,57.70
2023-04-26T17:13:19.192Z,57.60
2023-04-26T17:15:46.359Z,57.30
2023-04-26T17:18:13.089Z,57.10
2023-04-26T17:20:39.729Z,57.30
2023-04-26T17:23:07.852Z,57.20
2023-04-26T17:25:34.542Z,56.80
2023-04-26T17:28:01.125Z,57.10
2023-04-26T17:30:28.083Z,56.40
2023-04-26T17:32:54.752Z,56.40
2023-04-26T17:35:21.375Z,56.50
2023-04-26T17:37:50.364Z,56.50
2023-04-26T17:40:18.022Z,56.70
2023-04-26T17:42:45.370Z,56.80
2023-04-26T17:45:14.080Z,57.00
2023-04-26T17:47:41.692Z,56.90
2023-04-26T17:50:09.053Z,57.10
2023-04-26T17:52:35.756Z,57.00
2023-04-26T17:55:02.455Z,56.90
2023-04-26T17:57:29.048Z,57.30
2023-04-26T17:59:55.728Z,57.00
2023-04-26T18:02:22.429Z,57.00
2023-04-26T18:04:49.525Z,56.90
2023-04-26T18:07:16.236Z,57.00
2023-04-26T18:09:42.834Z,57.00
2023-04-26T18:12:09.423Z,57.10
2023-04-26T18:14:36.116Z,57.40
2023-04-26T18:17:04.392Z,57.10
2023-04-26T18:19:31.000Z,57.30
2023-04-26T18:21:57.552Z,57.00
2023-04-26T18:24:24.195Z,57.50
2023-04-26T18:26:50.919Z,57.80
2023-04-26T18:29:17.485Z,56.80
2023-04-26T18:31:44.202Z,56.90
2023-04-26T18:34:11.449Z,56.80
2023-04-26T18:36:38.433Z,56.90
2023-04-26T18:39:04.994Z,57.00
2023-04-26T18:41:31.575Z,57.00
2023-04-26T18:43:58.258Z,56.90
2023-04-26T18:46:24.849Z,57.00
2023-04-26T18:48:51.759Z,56.90
2023-04-26T18:51:18.373Z,56.90
2023-04-26T18:53:44.909Z,57.00
2023-04-26T18:56:11.549Z,57.00
2023-04-26T18:58:38.830Z,57.00
2023-04-26T19:01:05.459Z,57.30
2023-04-26T19:03:32.249Z,57.10
2023-04-26T19:05:58.961Z,56.90
2023-04-26T19:08:25.678Z,56.90
2023-04-26T19:10:52.217Z,56.60
2023-04-26T19:13:19.459Z,56.40
2023-04-26T19:15:46.264Z,56.30
2023-04-26T19:18:12.923Z,56.10
2023-04-26T19:20:40.073Z,55.80
2023-04-26T19:23:06.700Z,55.70
2023-04-26T19:25:33.788Z,55.70
2023-04-26T19:28:00.434Z,55.50
2023-04-26T19:30:27.096Z,55.20
2023-04-26T19:32:53.831Z,55.20
2023-04-26T19:35:20.474Z,55.20
2023-04-26T19:37:47.012Z,55.50
2023-04-26T19:40:13.580Z,55.50
2023-04-26T19:42:40.125Z,55.50
2023-04-26T19:45:07.046Z,55.90
2023-04-26T19:47:33.734Z,56.00
2023-04-26T19:50:00.409Z,56.50
2023-04-26T19:52:26.966Z,56.30
2023-04-26T19:54:54.254Z,56.00
2023-04-26T19:57:21.171Z,56.10
2023-04-26T19:59:47.755Z,56.10
2023-04-26T20:02:14.402Z,56.20
2023-04-26T20:04:41.108Z,56.10
2023-04-26T20:07:11.341Z,56.60
2023-04-26T20:09:37.922Z,56.40
2023-04-26T20:12:04.847Z,56.20
2023-04-26T20:14:31.727Z,56.20
2023-04-26T20:17:02.134Z,56.10
2023-04-26T20:19:29.248Z,56.00
2023-04-26T20:21:56.557Z,56.40
2023-04-26T20:24:28.155Z,56.20
2023-04-26T20:26:56.236Z,56.10
2023-04-26T20:29:22.802Z,56.00
2023-04-26T20:31:49.518Z,56.00
2023-04-26T20:34:16.238Z,56.00
2023-04-26T20:36:42.822Z,56.10
2023-04-26T20:39:12.421Z,56.40
2023-04-26T20:41:39.082Z,56.10
2023-04-26T20:44:06.059Z,56.10
2023-04-26T20:46:35.012Z,56.00
2023-04-26T20:49:02.501Z,55.90
2023-04-26T20:51:29.082Z,56.10
2023-04-26T20:53:55.646Z,55.80
2023-04-26T20:56:22.207Z,56.20
2023-04-26T20:58:48.887Z,56.30
2023-04-26T21:01:15.494Z,56.60
2023-04-26T21:03:42.209Z,56.30
2023-04-26T21:06:08.942Z,56.00
2023-04-26T21:08:36.822Z,55.80
2023-04-26T21:11:03.747Z,55.80
2023-04-26T21:13:30.702Z,56.30
2023-04-26T21:15:57.748Z,56.30
2023-04-26T21:18:24.409Z,55.80
2023-04-26T21:20:50.985Z,55.40
2023-04-26T21:23:17.791Z,55.70
2023-04-26T21:25:48.325Z,55.60
2023-04-26T21:28:15.456Z,55.50
2023-04-26T21:30:42.547Z,55.70
2023-04-26T21:33:09.187Z,56.10
2023-04-26T21:35:35.803Z,56.50
2023-04-26T21:38:02.394Z,56.10
2023-04-26T21:40:29.098Z,56.00
2023-04-26T21:43:04.490Z,55.50
2023-04-26T21:45:31.652Z,55.70
2023-04-26T21:47:58.306Z,55.40
2023-04-26T21:50:25.095Z,55.40
2023-04-26T21:52:51.669Z,55.70
2023-04-26T21:55:18.283Z,56.30
2023-04-26T21:57:44.907Z,55.60
2023-04-26T22:00:13.190Z,55.70
2023-04-26T22:02:39.966Z,55.40
2023-04-26T22:05:06.901Z,55.30
2023-04-26T22:07:33.611Z,55.30
2023-04-26T22:10:00.733Z,55.20
2023-04-26T22:12:27.615Z,55.00
2023-04-26T22:14:54.258Z,55.00
2023-04-26T22:17:21.172Z,55.20
2023-04-26T22:19:47.814Z,55.30
2023-04-26T22:22:14.395Z,55.80
2023-04-26T22:24:41.272Z,55.60
2023-04-26T22:27:08.036Z,54.80
2023-04-26T22:29:34.691Z,54.80
2023-04-26T22:32:01.317Z,54.80
2023-04-26T22:34:28.585Z,55.30
2023-04-26T22:36:59.254Z,55.90
2023-04-26T22:39:30.853Z,55.70
2023-04-26T22:41:57.782Z,55.00
2023-04-26T22:44:24.355Z,54.80
2023-04-26T22:46:51.260Z,54.80
2023-04-26T22:49:17.841Z,54.80
2023-04-26T22:51:57.343Z,54.90
2023-04-26T22:54:32.099Z,55.20
2023-04-26T22:56:58.662Z,55.50
2023-04-26T22:59:25.448Z,55.20
2023-04-26T23:01:52.002Z,55.10
2023-04-26T23:04:18.598Z,54.80
2023-04-26T23:06:45.165Z,54.90
2023-04-26T23:09:12.509Z,54.80
2023-04-26T23:11:39.389Z,54.80
2023-04-26T23:14:07.309Z,55.40
2023-04-26T23:16:34.042Z,55.10
2023-04-26T23:19:00.726Z,55.20
2023-04-26T23:21:28.162Z,55.10
2023-04-26T23:23:54.732Z,54.90
2023-04-26T23:26:22.423Z,54.80
2023-04-26T23:28:48.980Z,54.70
2023-04-26T23:31:15.577Z,54.80
2023-04-26T23:33:42.135Z,54.70
2023-04-26T23:36:08.925Z,55.10
2023-04-26T23:38:35.573Z,55.20
2023-04-26T23:41:02.377Z,55.10
2023-04-26T23:43:29.002Z,54.80
2023-04-26T23:45:55.712Z,54.70
2023-04-26T23:48:22.383Z,54.60
2023-04-26T23:50:48.910Z,54.70
2023-04-26T23:53:15.473Z,54.80
2023-04-26T23:55:42.014Z,55.00
2023-04-26T23:58:08.581Z,55.80
